Latest Coastal Weather Observations for Roebourne Airport

IDW60701

Issued at 3:55 pm WST Wednesday 3 September 2014 (issued every 10 minutes, with the page automatically refreshed every 10 minutes)

About coastal observations | Map of coastal stations | Coastal observations for WA | Marine services | Other Formats
Station Details ID: 004090 Name: ROEBOURNE AERO Lat: -20.76 Lon: 117.16 Height: 10.7 m
Data from the previous 72 hours. | See also: Recent months at Roebourne Airport
Date/Time
WST
Temp

°C
Wind Pressure Rain
since 9am
mm
Weather Cloud Vis
km
Sea
Height
m
Swell
Dir
 
Speed
knots
Gust
knots
hPa Trend Height
m
Period
s
Dir
03/03:30pm 35.0 WNW 11 15 1013.4 - 0.0 - - - - - - -
03/03:00pm 35.8 WNW 11 16 1013.4 - 0.0 - - - - - - -
03/02:30pm 35.8 WNW 9 14 1013.4 - 0.0 - - - - - - -
03/02:00pm 35.8 WNW 11 16 1013.6 - 0.0 - - - - - - -
03/01:30pm 35.8 WNW 13 17 1014.0 - 0.0 - - - - - - -
03/01:00pm 36.0 WNW 12 16 1014.4 - 0.0 - - - - - - -
03/12:30pm 35.9 N 9 13 1014.8 - 0.0 - - - - - - -
03/12:00pm 35.4 NNW 6 11 1015.2 - 0.0 - - - - - - -
03/11:30am 34.6 N 5 8 1015.8 - 0.0 - - - - - - -
03/11:00am 33.2 NW 5 8 1016.2 - 0.0 - - - - - - -
03/10:30am 32.1 NNW 4 6 1016.7 - 0.0 - - - - - - -
03/10:00am 31.1 W 3 7 1017.0 - 0.0 - - - - - - -
03/09:30am 29.1 NE 2 5 1017.0 - 0.0 - - - - - - -
03/09:00am 27.4 CALM 0 0 1017.2 - 0.0 - - - - - - -
03/08:30am 24.4 WSW 1 4 1017.1 - 0.0 - - - - - - -
03/08:00am 22.1 CALM 0 0 1017.0 - 0.0 - - - - - - -
03/07:30am 17.5 CALM 0 0 1016.7 - 0.0 - - - - - - -
03/07:00am 13.8 CALM 0 0 1016.4 - 0.0 - - - - - - -
03/06:30am 11.7 CALM 0 0 1016.2 - 0.0 - - - - - - -
03/06:00am 12.0 CALM 0 0 1015.9 - 0.0 - - - - - - -
03/05:30am 14.1 WSW 3 4 1015.6 - 0.0 - - - - - - -
03/05:00am 14.6 SW 3 4 1015.5 - 0.0 - - - - - - -
03/04:30am 16.9 WSW 4 5 1015.3 - 0.0 - - - - - - -
03/04:00am 18.5 WSW 3 5 1015.2 - 0.0 - - - - - - -
03/03:30am 18.4 SW 7 8 1015.2 - 0.0 - - - - - - -
03/03:00am 17.1 SW 6 8 1015.5 - 0.0 - - - - - - -
03/02:30am 16.9 SW 3 5 1015.7 - 0.0 - - - - - - -
03/02:00am 18.6 SW 7 9 1015.9 - 0.0 - - - - - - -
03/01:30am 18.7 WNW 5 5 1016.1 - 0.0 - - - - - - -
03/01:00am 18.6 WNW 4 5 1016.3 - 0.0 - - - - - - -
03/12:30am 19.3 WSW 4 6 1016.5 - 0.0 - - - - - - -
03/12:00am 18.8 WSW 6 7 1016.8 - 0.0 - - - - - - -
 
Date/Time
WST
Temp

°C
Wind Pressure Rain
since 9am
mm
Weather Cloud Vis
km
Sea
Height
m
Swell
Dir
 
Speed
knots
Gust
knots
hPa Trend Height
m
Period
s
Dir
02/11:30pm 20.7 WSW 6 7 1017.0 - 0.0 - - - - - - -
02/11:00pm 21.5 WSW 4 7 1017.1 - 0.0 - - - - - - -
02/10:30pm 20.8 WSW 6 8 1017.2 - 0.0 - - - - - - -
02/10:00pm 19.7 WSW 5 7 1017.2 - 0.0 - - - - - - -
02/09:30pm 18.8 SW 6 7 1017.2 - 0.0 - - - - - - -
02/09:00pm 23.1 W 6 9 1017.0 - 0.0 - - - - - - -
02/08:30pm 23.8 W 7 8 1016.8 - 0.0 - - - - - - -
02/08:00pm 24.1 WSW 7 9 1016.3 - 0.0 - - - - - - -
02/07:30pm 22.4 W 2 4 1016.1 - 0.0 - - - - - - -
02/07:00pm 22.7 NW 6 7 1015.7 - 0.0 - - - - - - -
02/06:30pm 23.7 NNW 8 8 1015.3 - 0.0 - - - - - - -
02/06:00pm 27.2 NW 8 10 1015.2 - 0.0 - - - - - - -
02/05:30pm 30.1 NW 9 11 1014.9 - 0.0 - - - - - - -
02/05:00pm 31.9 WNW 9 11 1014.6 - 0.0 - - - - - - -
02/04:30pm 32.6 WNW 8 11 1014.4 - 0.0 - - - - - - -
02/04:00pm 33.2 NNW 8 11 1014.2 - 0.0 - - - - - - -
02/03:30pm 33.4 NW 7 11 1014.2 - 0.0 - - - - - - -
02/03:00pm 33.7 NNW 8 13 1014.4 - 0.0 - - - - - - -
02/02:30pm 33.6 NW 8 12 1014.5 - 0.0 - - - - - - -
02/02:00pm 33.5 NW 7 12 1014.9 - 0.0 - - - - - - -
02/01:30pm 33.5 N 9 13 1015.3 - 0.0 - - - - - - -
02/01:00pm 33.5 NNE 10 13 1015.8 - 0.0 - - - - - - -
02/12:30pm 32.5 N 9 13 1016.2 - 0.0 - - - - - - -
02/12:00pm 32.5 N 9 13 1016.5 - 0.0 - - - - - - -
02/11:30am 32.1 N 8 11 1016.7 - 0.0 - - - - - - -
02/11:00am 31.7 NE 5 9 1017.1 - 0.0 - - - - - - -
02/10:30am 31.4 N 4 7 1017.4 - 0.0 - - - - - - -
02/10:00am 29.9 E 3 6 1017.6 - 0.0 - - - - - - -
02/09:30am 28.1 WNW 1 5 1017.8 - 0.0 - - - - - - -
02/09:00am 26.7 CALM 0 1 1017.5 - 0.0 - - - - - - -
02/08:30am 22.8 CALM 0 0 1017.1 - 0.0 - - - - - - -
02/08:00am 19.5 CALM 0 0 1016.7 - 0.0 - - - - - - -
02/07:30am 16.3 CALM 0 0 1016.4 - 0.0 - - - - - - -
02/07:00am 11.8 NNE 2 3 1016.1 - 0.0 - - - - - - -
02/06:30am 9.6 CALM 0 0 1015.8 - 0.0 - - - - - - -
02/06:00am 9.7 CALM 0 0 1015.6 - 0.0 - - - - - - -
02/05:30am 10.5 CALM 0 0 1015.3 - 0.0 - - - - - - -
02/05:00am 10.8 CALM 0 0 1015.0 - 0.0 - - - - - - -
02/04:30am 11.3 SW 1 3 1014.9 - 0.0 - - - - - - -
02/04:00am 12.4 WSW 5 6 1014.7 - 0.0 - - - - - - -
02/03:30am 12.2 S 4 5 1014.8 - 0.0 - - - - - - -
02/03:00am 13.1 WSW 3 5 1015.1 - 0.0 - - - - - - -
02/02:30am 13.2 SSW 4 5 1015.2 - 0.0 - - - - - - -
02/02:00am 14.9 SSW 2 4 1015.3 - 0.0 - - - - - - -
02/01:30am 14.8 W 1 4 1015.5 - 0.0 - - - - - - -
02/01:00am 17.7 SW 5 7 1015.6 - 0.0 - - - - - - -
02/12:30am 17.8 SW 7 8 1015.8 - 0.0 - - - - - - -
02/12:00am 17.6 SW 6 7 1015.7 - 0.0 - - - - - - -
 
Date/Time
WST
Temp

°C
Wind Pressure Rain
since 9am
mm
Weather Cloud Vis
km
Sea
Height
m
Swell
Dir
 
Speed
knots
Gust
knots
hPa Trend Height
m
Period
s
Dir
01/11:30pm 17.1 SW 5 5 1015.7 - 0.0 - - - - - - -
01/11:00pm 17.6 W 5 6 1016.0 - 0.0 - - - - - - -
01/10:30pm 17.3 SW 7 8 1016.2 - 0.0 - - - - - - -
01/10:00pm 17.0 SSW 5 7 1016.2 - 0.0 - - - - - - -
01/09:30pm 18.3 WSW 6 7 1015.9 - 0.0 - - - - - - -
01/09:00pm 20.8 W 6 8 1015.7 - 0.0 - - - - - - -
01/08:30pm 19.6 WNW 5 7 1015.6 - 0.0 - - - - - - -
01/08:00pm 20.6 NW 7 8 1015.3 - 0.0 - - - - - - -
01/07:30pm 21.8 WNW 6 7 1015.0 - 0.0 - - - - - - -
01/07:00pm 22.6 NW 7 8 1014.6 - 0.0 - - - - - - -
01/06:30pm 24.1 NW 5 7 1014.4 - 0.0 - - - - - - -
01/06:00pm 26.6 NNW 8 9 1014.1 - 0.0 - - - - - - -
01/05:30pm 30.1 N 8 9 1014.0 - 0.0 - - - - - - -
01/05:00pm 31.2 N 7 9 1013.8 - 0.0 - - - - - - -
01/04:30pm 32.0 N 7 9 1013.6 - 0.0 - - - - - - -
01/04:00pm 33.0 N 7 12 1013.5 - 0.0 - - - - - - -
01/03:30pm 33.1 NNE 8 11 1013.4 - 0.0 - - - - - - -
01/03:00pm 33.6 NNE 9 12 1013.5 - 0.0 - - - - - - -
01/02:30pm 34.5 NNE 8 12 1013.5 - 0.0 - - - - - - -
01/02:00pm 34.2 NNE 10 13 1013.8 - 0.0 - - - - - - -
01/01:30pm 34.2 NNE 12 16 1014.1 - 0.0 - - - - - - -
01/01:00pm 34.0 N 9 12 1014.8 - 0.0 - - - - - - -
01/12:30pm 33.7 NNE 10 13 1015.1 - 0.0 - - - - - - -
01/12:00pm 32.7 NNE 11 13 1015.3 - 0.0 - - - - - - -
01/11:30am 33.0 NNE 8 11 1015.4 - 0.0 - - - - - - -
01/11:00am 33.2 NE 8 12 1015.6 - 0.0 - - - - - - -
01/10:30am 32.2 S 5 8 1016.0 - 0.0 - - - - - - -
01/10:00am 31.8 SE 6 9 1016.2 - 0.0 - - - - - - -
01/09:30am 30.0 ESE 5 7 1016.1 - 0.0 - - - - - - -
01/09:00am 27.9 SSE 4 5 1016.3 - 0.0 - - - - - - -
01/08:30am 25.2 S 2 4 1016.1 - 0.0 - - - - - - -
01/08:00am 20.9 CALM 0 3 1015.8 - 0.0 - - - - - - -
01/07:30am 16.2 CALM 0 0 1015.5 - 0.0 - - - - - - -
01/07:00am 11.7 SW 1 4 1015.2 - 0.0 - - - - - - -
01/06:30am 9.9 CALM 0 0 1015.0 - 0.0 - - - - - - -
01/06:00am 9.7 CALM 0 1 1014.6 - 0.0 - - - - - - -
01/05:30am 10.7 WSW 6 7 1014.3 - 0.0 - - - - - - -
01/05:00am 10.1 WSW 2 3 1014.4 - 0.0 - - - - - - -
01/04:30am 10.0 CALM 0 0 1014.2 - 0.0 - - - - - - -
01/04:00am 10.7 CALM 0 0 1014.1 - 0.0 - - - - - - -
01/03:30am 10.7 CALM 0 3 1014.1 - 0.0 - - - - - - -
01/03:00am 12.3 W 5 6 1014.2 - 0.0 - - - - - - -
01/02:30am 11.6 SW 4 6 1014.4 - 0.0 - - - - - - -
01/02:00am 11.7 CALM 0 3 1014.4 - 0.0 - - - - - - -
01/01:30am 15.5 W 6 6 1014.4 - 0.0 - - - - - - -
01/01:00am 14.4 WNW 2 7 1014.6 - 0.0 - - - - - - -
01/12:30am 14.4 SW 3 3 1014.8 - 0.0 - - - - - - -
01/12:00am 15.8 WSW 2 5 1015.0 - 0.0 - - - - - - -
 
Date/Time
WST
Temp

°C
Wind Pressure Rain
since 9am
mm
Weather Cloud Vis
km
Sea
Height
m
Swell
Dir
 
Speed
knots
Gust
knots
hPa Trend Height
m
Period
s
Dir
31/11:30pm 16.0 SW 4 5 1015.1 - 0.0 - - - - - - -
31/11:00pm 17.4 SW 4 5 1015.2 - 0.0 - - - - - - -
31/10:30pm 17.4 SW 4 5 1015.2 - 0.0 - - - - - - -
31/10:00pm 18.7 SW 7 8 1015.3 - 0.0 - - - - - - -
31/09:30pm 16.9 SSW 5 7 1015.5 - 0.0 - - - - - - -
31/09:00pm 18.8 SW 5 6 1015.3 - 0.0 - - - - - - -
31/08:30pm 21.2 W 5 7 1015.1 - 0.0 - - - - - - -
31/08:00pm 21.3 W 6 7 1014.7 - 0.0 - - - - - - -
31/07:30pm 21.8 W 7 8 1014.4 - 0.0 - - - - - - -
31/07:00pm 21.8 NNW 6 7 1014.1 - 0.0 - - - - - - -
31/06:30pm 23.4 NNW 7 8 1013.9 - 0.0 - - - - - - -
31/06:00pm 26.3 NW 7 8 1013.5 - 0.0 - - - - - - -
31/05:30pm 28.7 NNW 6 7 1013.3 - 0.0 - - - - - - -
31/05:00pm 29.5 N 9 11 1013.2 - 0.0 - - - - - - -
31/04:30pm 31.1 NNW 9 11 1013.3 - 0.0 - - - - - - -
31/04:00pm 32.3 NNW 9 12 1013.3 - 0.0 - - - - - - -

Other Formats:

Comma delimited format used in spreadsheet applications
http://www.bom.gov.au/fwo/IDW60701/IDW60701.94308.axf

JavaScript Object Notation format (JSON) in row-major order
http://www.bom.gov.au/fwo/IDW60701/IDW60701.94308.json